Detall de PIREP

Printer-friendly versionPDF version

[2013/05/09 10:20:00]
Flight IATA:CT3232
Pilot Number:042
Company ICAO:CAT
Aircraft Type:F70/A
PAX:26
Aircraft Registration:PFJ
Departing Airport: LEPA
Destination Airport: LEMD
Alternate Airport:LEMG
Online: VATSIM
Route:EPAMA UN733 PRADO
Flight Level:F290
No Slew and time accel
No pause
Crash detect
Detect pilot in Cockpit between each 30 and 45 minutes
10:20 Zero fuel Weight: 72666 Lbs, Fuel Weight: 22685 Lbs
10:20 VATSIM:LEPA 091000Z 07003KT 020V120 9999 FEW045 24/15 Q1016 NOSIG
10:20 VATSIM:LEMD 091000Z 20012KT 9999 BKN055 21/10 Q1016 NOSIG
10:20 VOICE CATALONIAN
10:32 Parking Brakes off
10:42 Take-off
10:42 Take off Weight: 94701 Lbs
10:42 Wind: 162º @ 001 Knots Heading: 058º
10:42 POS N39º 33´ 01´´ E002º 45´ 03´´
10:42 Gear Up: 166 Knots
10:42 Flaps:2 at 166 Knots
10:42 Flaps:1 at 174 Knots
10:42 Flaps:0 at 175 Knots
10:57 Wind:185º@012 Knots Heading: 262º Ground Speed: 375 Knots Altitude 24452 ft
11:02 TOC
11:02 Fuel Weight: 19759 Lb
11:12 Wind:101º@036 Knots Heading: 302º Ground Speed: 475 Knots Altitude 29055 ft
11:21 TOD
11:21 Fuel Weight: 18107 Lb
11:27 Wind:231º@048 Knots Heading: 318º Ground Speed: 332 Knots Altitude 22821 ft
11:42 Wind:222º@021 Knots Heading: 185º Ground Speed: 172 Knots Altitude 4547 ft
11:42 Gear Down: 176 Knots
11:42 Flaps:1 at 176 Knots
11:42 Flaps:2 at 172 Knots
11:42 Flaps:3 at 166 Knots
11:42 Flaps:4 at 166 Knots
11:43 Flaps:3 at 160 Knots
11:45 TouchDown:Rate -194 ft/min Speed: 147 Knots
11:45 VATSIM:LEMD 091130Z 22013G25KT 180V240 9999 FEW045 SCT060 23/08 Q1016 NOSIG
11:45 Land
11:45 Wind:215º@013 Knots
11:45 Heading: 177º
11:45 Flight Duration: 01:03
11:45 Landing Weight: 89961 Lbs
11:45 POS N40º 30´ 28´´ W003º 34´ 29´´
11:52 Parking brakes on
11:52 Block to Block Duration: 01:20
11:52 Final Fuel: 16882 Lbls
11:52 Spent Fuel: 5802 Lbls
11:52 Flight Length: 358 NM
11:52 TOD Land Length: 104 NM

Exportar CSV

Powered by Drupal - Modified by Danger4k